Genua — IIYU — position and weather

sailwx.info

Track history (hours):
 
Tides and Currents Weather Stations Pressure Air Temp Water Temp Dewpoint Dewpoint Depression Visibility Wind Speed Wind Dir Waves Ship Positions

Genua

Last reported at 2017-Apr-20 03:04 UTC. Time now 2017-Oct-17 04:05 UTC.
Position N 43°15' E 010°16'.
Warning: this ship's position is months out of date.

Length 35 m; draft 5.2 m.

Type: Tug. MMSI: 247204000.

Date/timePositionNaut miles runAvg speedWind from/ knotsBaromVisibWave heightAir tempDewpointWater temp
2017-Apr-20 03:04N 43°15' E 010°16'110.1
2017-Apr-20 03:00N 43°16' E 010°16'510.1
2017-Apr-20 02:31N 43°21' E 010°13'5 9.9
2017-Apr-20 02:00N 43°25' E 010°11'510.0
2017-Apr-20 01:30N 43°30' E 010°08'5 9.8
2017-Apr-20 01:00N 43°34' E 010°05'5 9.8
2017-Apr-20 00:30N 43°39' E 010°03'5 9.5
2017-Apr-20 00:00N 43°42' E 009°58'5 9.6
2017-Apr-19 23:31N 43°45' E 009°54'5 9.8
2017-Apr-19 23:00N 43°49' E 009°48'5 9.9
2017-Apr-19 22:30N 43°52' E 009°43'5 9.9
2017-Apr-19 22:00N 43°55' E 009°38'5 9.9
2017-Apr-19 21:30N 43°58' E 009°33'5 9.9
2017-Apr-19 21:01N 44°01' E 009°28'5 9.9
2017-Apr-19 20:30N 44°05' E 009°22'510.0
2017-Apr-19 20:00N 44°08' E 009°17'510.0
2017-Apr-19 19:31N 44°11' E 009°12'510.1
2017-Apr-19 19:00N 44°15' E 009°07'5 9.9
2017-Apr-19 18:30N 44°18' E 009°01'5 9.7
2017-Apr-19 18:00N 44°22' E 008°57'3 5.1
2017-Apr-19 17:20N 44°25' E 008°55'1 3.7
2017-Apr-19 17:00N 44°24' E 008°56'1 2.3
2017-Apr-19 16:29N 44°25' E 008°55'0 0.0
2017-Apr-19 15:59N 44°25' E 008°55'0 0.0
2017-Apr-19 15:29N 44°25' E 008°55'0 0.0
2017-Apr-19 14:59N 44°25' E 008°55'0 0.0
2017-Apr-19 14:29N 44°25' E 008°55'0 0.0
2017-Apr-19 13:20N 44°25' E 008°55'0 0.0
2017-Apr-19 12:59N 44°25' E 008°55'0 0.0
2017-Apr-19 12:29N 44°25' E 008°55'0 0.0
2017-Apr-19 11:59N 44°25' E 008°55'0 0.0
2017-Apr-19 11:20N 44°25' E 008°55'0 0.0
2017-Apr-19 10:50N 44°25' E 008°55'0 0.0
2017-Apr-19 10:23N 44°25' E 008°55'0 0.0
2017-Apr-19 09:53N 44°25' E 008°55'0 0.0
2017-Apr-19 09:23N 44°25' E 008°55'0 0.0
2017-Apr-19 08:53N 44°25' E 008°55'0 0.0
2017-Apr-19 08:20N 44°25' E 008°55'0 0.0
2017-Apr-19 07:53N 44°25' E 008°55'0 0.0
2017-Apr-19 07:11N 44°25' E 008°55'0 0.0
2017-Apr-19 06:56N 44°25' E 008°55'0 0.0
2017-Apr-19 06:26N 44°25' E 008°55'0 0.0
2017-Apr-19 05:56N 44°25' E 008°55'0 0.0
2017-Apr-19 05:26N 44°25' E 008°55'0 0.0
2017-Apr-19 04:56N 44°25' E 008°55'0 0.0
2017-Apr-19 04:26N 44°25' E 008°55'0 0.0
2017-Apr-19 03:26N 44°25' E 008°55'0 0.0
2017-Apr-19 02:59N 44°25' E 008°55'0 0.0
2017-Apr-19 02:29N 44°25' E 008°55'0 0.0
2017-Apr-19 01:59N 44°25' E 008°55'0 0.0
2017-Apr-19 01:29N 44°25' E 008°55'0 0.0
2017-Apr-19 00:59N 44°25' E 008°55'0 0.0
2017-Apr-18 23:47N 44°25' E 008°55'0 0.0
2017-Apr-18 23:29N 44°25' E 008°55'0 0.0
2017-Apr-18 22:59N 44°25' E 008°55'0 0.0
2017-Apr-18 22:17N 44°25' E 008°55'0 0.0
2017-Apr-18 21:59N 44°25' E 008°55'0 0.0
2017-Apr-18 21:17N 44°25' E 008°55'0 0.0
2017-Apr-18 20:50N 44°25' E 008°55'0 0.0
2017-Apr-18 20:23N 44°25' E 008°55'0 0.0
2017-Apr-18 19:50N 44°25' E 008°55'0 0.0
2017-Apr-18 19:20N 44°25' E 008°55'0 0.0
2017-Apr-18 18:23N 44°25' E 008°55'0 0.0
2017-Apr-18 17:56N 44°25' E 008°55'0 0.0
2017-Apr-18 17:26N 44°25' E 008°55'0 0.0
2017-Apr-18 16:56N 44°25' E 008°55'0 0.0
2017-Apr-18 16:26N 44°25' E 008°55'0 0.0
2017-Apr-18 15:26N 44°25' E 008°55'0 0.0
2017-Apr-18 14:56N 44°25' E 008°55'0 0.0
2017-Apr-18 13:53N 44°25' E 008°55'1 2.3
2017-Apr-18 13:30N 44°24' E 008°56'1 1.0
2017-Apr-18 12:36N 44°25' E 008°55'0 0.0
2017-Apr-18 12:24N 44°25' E 008°55'0 0.0
2017-Apr-18 11:51N 44°25' E 008°55'0 0.0
2017-Apr-18 11:06N 44°25' E 008°55'0 0.0
2017-Apr-18 10:57N 44°25' E 008°55'0 0.0
2017-Apr-18 10:27N 44°25' E 008°55'0 0.0
2017-Apr-18 09:57N 44°25' E 008°55'0 0.0
2017-Apr-18 09:27N 44°25' E 008°55'0 0.0
2017-Apr-18 08:57N 44°25' E 008°55'0 0.0
2017-Apr-18 08:24N 44°25' E 008°55'0 0.0
2017-Apr-18 08:00N 44°25' E 008°55'0 0.0
2017-Apr-18 07:30N 44°25' E 008°55'0 0.0
2017-Apr-18 06:55N 44°25' E 008°55'0 0.0
2017-Apr-18 06:30N 44°25' E 008°55'0 0.0
2017-Apr-18 06:00N 44°25' E 008°55'0 0.0
2017-Apr-18 05:30N 44°25' E 008°55'0 0.0
2017-Apr-18 05:00N 44°25' E 008°55'0 0.0
2017-Apr-18 04:30N 44°25' E 008°55'0 0.0
2017-Apr-18 04:00N 44°25' E 008°55'0 0.0
2017-Apr-18 03:30N 44°25' E 008°55'0 0.0
2017-Apr-18 03:00N 44°25' E 008°55'0 0.0
2017-Apr-18 02:30N 44°25' E 008°55'0 0.0
2017-Apr-18 02:00N 44°25' E 008°55'0 0.0
2017-Apr-18 01:30N 44°25' E 008°55'0 0.0
2017-Apr-18 01:00N 44°25' E 008°55'0 0.0
2017-Apr-18 00:30N 44°25' E 008°55'0 0.0
2017-Apr-18 00:00N 44°25' E 008°55'0 0.0
2017-Apr-17 23:30N 44°25' E 008°55'0 0.0
2017-Apr-17 23:01N 44°25' E 008°55'0 0.0
2017-Apr-17 22:31N 44°25' E 008°55'0 0.0
2017-Apr-17 22:01N 44°25' E 008°55'0 0.0
2017-Apr-17 21:31N 44°25' E 008°55'0 0.0
2017-Apr-17 21:01N 44°25' E 008°55'0 0.0
2017-Apr-17 20:30N 44°25' E 008°55'0 0.0
2017-Apr-17 20:01N 44°25' E 008°55'0 0.0
2017-Apr-17 19:31N 44°25' E 008°55'0 0.0
2017-Apr-17 19:01N 44°25' E 008°55'0 0.0
2017-Apr-17 18:30N 44°25' E 008°55'0 0.0
2017-Apr-17 18:01N 44°25' E 008°55'0 0.0
2017-Apr-17 17:31N 44°25' E 008°55'0 0.0
2017-Apr-17 17:01N 44°25' E 008°55'0 0.0
2017-Apr-17 16:30N 44°25' E 008°55'0 0.0
2017-Apr-17 16:00N 44°25' E 008°55'0 0.0
2017-Apr-17 15:30N 44°25' E 008°55'0 0.0
2017-Apr-17 15:00N 44°25' E 008°55'0 0.0
2017-Apr-17 14:00N 44°25' E 008°55'0 0.0
2017-Apr-17 13:30N 44°25' E 008°55'0 0.0
2017-Apr-17 13:00N 44°25' E 008°55'0 0.0
2017-Apr-17 12:30N 44°25' E 008°55'0 0.0
2017-Apr-17 12:00N 44°25' E 008°55'0 0.0
2017-Apr-17 11:30N 44°25' E 008°55'0 0.0
2017-Apr-17 11:00N 44°25' E 008°55'0 0.0
2017-Apr-17 10:30N 44°25' E 008°55'0 0.0
2017-Apr-17 10:00N 44°25' E 008°55'0 0.0
2017-Apr-17 09:30N 44°25' E 008°55'0 0.0
2017-Apr-17 09:01N 44°25' E 008°55'0 0.0
2017-Apr-17 08:31N 44°25' E 008°55'0 0.0
2017-Apr-17 08:01N 44°25' E 008°55'0 0.0
2017-Apr-17 07:31N 44°25' E 008°55'0 0.0
2017-Apr-17 07:01N 44°25' E 008°55'0 0.0
2017-Apr-17 06:31N 44°25' E 008°55'0 0.0
2017-Apr-17 06:00N 44°25' E 008°55'0 0.0
2017-Apr-17 05:31N 44°25' E 008°55'0 0.0
2017-Apr-17 05:01N 44°25' E 008°55'0 0.0
2017-Apr-17 04:31N 44°25' E 008°55'0 0.0
2017-Apr-17 04:00N 44°25' E 008°55'0 0.0
2017-Apr-17 03:30N 44°25' E 008°55'0 0.0
2017-Apr-17 03:01N 44°25' E 008°55'0 0.0
2017-Apr-17 02:31N 44°25' E 008°55'0 0.0
2017-Apr-17 02:00N 44°25' E 008°55'0 0.0
2017-Apr-17 01:30N 44°25' E 008°55'0 0.0
2017-Apr-17 01:00N 44°25' E 008°55'0 0.0
2017-Apr-17 00:30N 44°25' E 008°55'0 0.0
2017-Apr-17 00:00N 44°25' E 008°55'0 0.0
2017-Apr-16 23:30N 44°25' E 008°55'0 0.0
2017-Apr-16 23:00N 44°25' E 008°55'0 0.0
2017-Apr-16 22:30N 44°25' E 008°55'0 0.0
2017-Apr-16 22:00N 44°25' E 008°55'0 0.0
2017-Apr-16 21:30N 44°25' E 008°55'0 0.0
2017-Apr-16 21:00N 44°25' E 008°55'0 0.0
2017-Apr-16 20:30N 44°25' E 008°55'0 0.0
2017-Apr-16 20:00N 44°25' E 008°55'0 0.0
2017-Apr-16 19:30N 44°25' E 008°55'0 0.0
2017-Apr-16 19:01N 44°25' E 008°55'0 0.0
2017-Apr-16 18:31N 44°25' E 008°55'0 0.0
2017-Apr-16 18:01N 44°25' E 008°55'0 0.0
2017-Apr-16 17:31N 44°25' E 008°55'0 0.0
2017-Apr-16 17:01N 44°25' E 008°55'0 0.0
2017-Apr-16 16:31N 44°25' E 008°55'0 0.0
2017-Apr-16 16:00N 44°25' E 008°55'0 0.0
2017-Apr-16 15:30N 44°25' E 008°55'0 0.0
2017-Apr-16 15:01N 44°25' E 008°55'0 0.0
2017-Apr-16 14:01N 44°25' E 008°55'0 0.0
2017-Apr-16 13:31N 44°25' E 008°55'0 0.0
2017-Apr-16 13:01N 44°25' E 008°55'0 0.0
2017-Apr-16 12:31N 44°25' E 008°55'0 0.0
2017-Apr-16 12:00N 44°25' E 008°55'0 0.0
2017-Apr-16 11:30N 44°25' E 008°55'0 0.0
2017-Apr-16 11:00N 44°25' E 008°55'0 0.0
2017-Apr-16 10:30N 44°25' E 008°55'0 0.0
2017-Apr-16 10:00N 44°25' E 008°55'0 0.0
2017-Apr-16 09:30N 44°25' E 008°55'0 0.0
2017-Apr-16 09:00N 44°25' E 008°55'0 0.0
2017-Apr-16 08:30N 44°25' E 008°55'0 0.0
2017-Apr-16 08:00N 44°25' E 008°55'0 0.0
2017-Apr-16 07:30N 44°25' E 008°55'0 0.0
2017-Apr-16 07:00N 44°25' E 008°55'0 0.0
2017-Apr-16 06:30N 44°25' E 008°55'0 0.0
2017-Apr-16 06:00N 44°25' E 008°55'0 0.0
2017-Apr-16 05:30N 44°25' E 008°55'0 0.0
2017-Apr-16 05:00N 44°25' E 008°55'0 0.0
2017-Apr-16 04:31N 44°25' E 008°55'0 0.0
2017-Apr-16 04:00N 44°25' E 008°55'0 0.0
2017-Apr-16 03:31N 44°25' E 008°55'0 0.0
2017-Apr-16 03:00N 44°25' E 008°55'0 0.0
2017-Apr-16 02:31N 44°25' E 008°55'0 0.0
2017-Apr-16 02:01N 44°25' E 008°55'0 0.0
2017-Apr-16 01:30N 44°25' E 008°55'0 0.0
2017-Apr-16 01:01N 44°25' E 008°55'0 0.0
2017-Apr-16 00:31N 44°25' E 008°55'0 0.0
2017-Apr-16 00:01N 44°25' E 008°55'0 0.0
2017-Apr-15 23:31N 44°25' E 008°55'0 0.0
2017-Apr-15 23:01N 44°25' E 008°55'0 0.0
2017-Apr-15 22:31N 44°25' E 008°55'0 0.0
2017-Apr-15 22:00N 44°25' E 008°55'0 0.0
2017-Apr-15 21:30N 44°25' E 008°55'0 0.0
2017-Apr-15 21:00N 44°25' E 008°55'0 0.0
2017-Apr-15 20:30N 44°25' E 008°55'0 0.0
2017-Apr-15 20:00N 44°25' E 008°55'0 0.0
2017-Apr-15 19:30N 44°25' E 008°55'0 0.0
2017-Apr-15 19:00N 44°25' E 008°55'0 0.0
2017-Apr-15 18:30N 44°25' E 008°55'0 0.0
2017-Apr-15 18:00N 44°25' E 008°55'0 0.0
2017-Apr-15 17:30N 44°25' E 008°55'0 0.0
2017-Apr-15 17:00N 44°25' E 008°55'0 0.0
2017-Apr-15 16:30N 44°25' E 008°55'0 0.0
2017-Apr-15 16:00N 44°25' E 008°55'0 0.0
2017-Apr-15 15:30N 44°25' E 008°55'0 0.0
2017-Apr-15 15:01N 44°25' E 008°55'0 0.0
2017-Apr-15 14:30N 44°25' E 008°55'0 0.0
2017-Apr-15 14:00N 44°25' E 008°55'0 0.0
2017-Apr-15 13:31N 44°25' E 008°55'0 0.0
2017-Apr-15 13:00N 44°25' E 008°55'0 0.0
2017-Apr-15 12:31N 44°25' E 008°55'0 0.0
2017-Apr-15 12:01N 44°25' E 008°55'0 0.0
2017-Apr-15 11:30N 44°25' E 008°55'0 0.0
2017-Apr-15 11:00N 44°25' E 008°55'0 0.0
2017-Apr-15 10:30N 44°25' E 008°55'0 0.0
2017-Apr-15 10:00N 44°25' E 008°55'0 0.0
2017-Apr-15 09:31N 44°25' E 008°55'1 2.3
2017-Apr-15 09:01N 44°24' E 008°56'0 0.2
2017-Apr-15 08:30N 44°24' E 008°56'1 2.6
2017-Apr-15 08:01N 44°25' E 008°55'0 0.0
2017-Apr-15 07:30N 44°25' E 008°55'0 0.0
2017-Apr-15 07:00N 44°25' E 008°55'0 0.0
2017-Apr-15 06:30N 44°25' E 008°55'0 0.0
2017-Apr-15 06:00N 44°25' E 008°55'0 0.0
2017-Apr-15 05:30N 44°25' E 008°55'0 0.0
2017-Apr-15 05:00N 44°25' E 008°55'0 0.0
2017-Apr-15 04:30N 44°25' E 008°55'0 0.0
2017-Apr-15 04:00N 44°25' E 008°55'0 0.0
2017-Apr-15 03:30N 44°25' E 008°55'0 0.0
2017-Apr-15 03:00N 44°25' E 008°55'0 0.0
2017-Apr-15 02:30N 44°25' E 008°55'0 0.0
2017-Apr-15 02:00N 44°25' E 008°55'0 0.0
2017-Apr-15 01:30N 44°25' E 008°55'0 0.0
2017-Apr-15 01:00N 44°25' E 008°55'0 0.0
2017-Apr-15 00:31N 44°25' E 008°55'0 0.0
2017-Apr-15 00:01N 44°25' E 008°55'0 0.0
2017-Apr-14 23:31N 44°25' E 008°55'0 0.0
2017-Apr-14 23:01N 44°25' E 008°55'0 0.0
2017-Apr-14 22:31N 44°25' E 008°55'0 0.0
2017-Apr-14 22:01N 44°25' E 008°55'0 0.0
2017-Apr-14 21:31N 44°25' E 008°55'0 0.0
2017-Apr-14 21:01N 44°25' E 008°55'0 0.0
2017-Apr-14 20:31N 44°25' E 008°55'0 0.0
2017-Apr-14 20:01N 44°25' E 008°55'0 0.0
2017-Apr-14 19:31N 44°25' E 008°55'0 0.0
2017-Apr-14 19:01N 44°25' E 008°55'0 0.0
2017-Apr-14 18:31N 44°25' E 008°55'0 0.0
2017-Apr-14 18:01N 44°25' E 008°55'0 0.0
2017-Apr-14 17:30N 44°25' E 008°55'0 0.0
2017-Apr-14 17:00N 44°25' E 008°55'0 0.0
2017-Apr-14 16:30N 44°25' E 008°55'0 0.0
2017-Apr-14 16:00N 44°25' E 008°55'0 0.0
2017-Apr-14 15:30N 44°25' E 008°55'0 0.0
2017-Apr-14 15:00N 44°25' E 008°55'0 0.0
2017-Apr-14 14:30N 44°25' E 008°55'0 0.0
2017-Apr-14 13:30N 44°25' E 008°55'2 4.1
2017-Apr-14 13:00N 44°23' E 008°57'0 0.6
2017-Apr-14 12:30N 44°23' E 008°57'2 3.7
2017-Apr-14 12:01N 44°25' E 008°55'0 0.0
2017-Apr-14 11:27N 44°25' E 008°55'0 0.0
2017-Apr-14 10:57N 44°25' E 008°55'0 0.0
2017-Apr-14 10:12N 44°25' E 008°55'0 0.0
2017-Apr-14 09:57N 44°25' E 008°55'0 0.0
2017-Apr-14 09:27N 44°25' E 008°55'0 0.0
2017-Apr-14 08:57N 44°25' E 008°55'0 0.0
2017-Apr-14 08:27N 44°25' E 008°55'0 0.0
2017-Apr-14 08:00N 44°25' E 008°55'0 0.0
2017-Apr-14 07:30N 44°25' E 008°55'0 0.0
2017-Apr-14 06:57N 44°25' E 008°55'0 0.0
2017-Apr-14 06:30N 44°25' E 008°55'0 0.0
2017-Apr-14 06:00N 44°25' E 008°55'0 0.0
2017-Apr-14 05:30N 44°25' E 008°55'0 0.0
2017-Apr-14 05:00N 44°25' E 008°55'0 0.0
2017-Apr-14 04:03N 44°25' E 008°55'0 0.0
2017-Apr-14 04:00N 44°25' E 008°55'0 0.0
2017-Apr-14 03:30N 44°25' E 008°55'0 0.0
2017-Apr-14 03:00N 44°25' E 008°55'0 0.0
2017-Apr-14 02:30N 44°25' E 008°55'0 0.0
2017-Apr-14 02:00N 44°25' E 008°55'0 0.0
2017-Apr-14 01:21N 44°25' E 008°55'0 0.0
2017-Apr-14 00:51N 44°25' E 008°55'0 0.0
2017-Apr-14 00:24N 44°25' E 008°55'0 0.0
2017-Apr-13 23:54N 44°25' E 008°55'0 0.0
2017-Apr-13 23:24N 44°25' E 008°55'0 0.0
2017-Apr-13 22:51N 44°25' E 008°55'0 0.0
2017-Apr-13 22:24N 44°25' E 008°55'0 0.0
2017-Apr-13 21:54N 44°25' E 008°55'0 0.0
2017-Apr-13 21:24N 44°25' E 008°55'0 0.0
2017-Apr-13 20:57N 44°25' E 008°55'0 0.0
2017-Apr-13 20:27N 44°25' E 008°55'0 0.0
2017-Apr-13 19:54N 44°25' E 008°55'0 0.0
2017-Apr-13 19:27N 44°25' E 008°55'0 0.0
2017-Apr-13 18:57N 44°25' E 008°55'0 0.0
2017-Apr-13 18:30N 44°25' E 008°55'0 0.0
2017-Apr-13 18:00N 44°25' E 008°55'0 0.0
2017-Apr-13 17:27N 44°25' E 008°55'0 0.0
2017-Apr-13 17:00N 44°25' E 008°55'0 0.0
2017-Apr-13 16:30N 44°25' E 008°55'0 0.0
2017-Apr-13 16:00N 44°25' E 008°55'0 0.0
2017-Apr-13 15:30N 44°25' E 008°55'0 0.0
2017-Apr-13 15:00N 44°25' E 008°55'0 0.0
2017-Apr-13 14:00N 44°25' E 008°55'0 0.0
2017-Apr-13 13:30N 44°25' E 008°55'0 0.0
2017-Apr-13 13:00N 44°25' E 008°55'0 0.0
2017-Apr-13 12:30N 44°25' E 008°55'0 0.0
2017-Apr-13 12:00N 44°25' E 008°55'0 0.0
2017-Apr-13 11:30N 44°25' E 008°55'0 0.0
2017-Apr-13 11:00N 44°25' E 008°55'0 0.0
2017-Apr-13 10:30N 44°25' E 008°55'0 0.0
2017-Apr-13 10:00N 44°25' E 008°55'0 0.0
2017-Apr-13 09:30N 44°25' E 008°55'0 0.0
2017-Apr-13 09:00N 44°25' E 008°55'0 0.0
2017-Apr-13 08:30N 44°25' E 008°55'0 0.0
2017-Apr-13 08:00N 44°25' E 008°55'0 0.0
2017-Apr-13 07:30N 44°25' E 008°55'0 0.0
2017-Apr-13 07:00N 44°25' E 008°55'0 0.0
2017-Apr-13 06:30N 44°25' E 008°55'0 0.0
2017-Apr-13 06:00N 44°25' E 008°55'0 0.0
2017-Apr-13 05:30N 44°25' E 008°55'0 0.0
2017-Apr-13 05:00N 44°25' E 008°55'0 0.0
2017-Apr-13 04:30N 44°25' E 008°55'0 0.0
2017-Apr-13 04:00N 44°25' E 008°55'0 0.0
2017-Apr-13 03:30N 44°25' E 008°55'0 0.0
2017-Apr-13 03:00N 44°25' E 008°55'0 0.0
2017-Apr-13 02:30N 44°25' E 008°55'0 0.0
2017-Apr-13 02:00N 44°25' E 008°55'0 0.0
2017-Apr-13 01:30N 44°25' E 008°55'0 0.0
2017-Apr-13 01:00N 44°25' E 008°55'0 0.0
2017-Apr-13 00:30N 44°25' E 008°55'0 0.0
2017-Apr-13 00:00N 44°25' E 008°55'0 0.0
2017-Apr-12 23:30N 44°25' E 008°55'0 0.0
2017-Apr-12 23:00N 44°25' E 008°55'0 0.0
2017-Apr-12 22:30N 44°25' E 008°55'0 0.0
2017-Apr-12 22:00N 44°25' E 008°55'0 0.0
2017-Apr-12 21:30N 44°25' E 008°55'0 0.0
2017-Apr-12 21:00N 44°25' E 008°55'0 0.0
2017-Apr-12 20:30N 44°25' E 008°55'0 0.0
2017-Apr-12 20:00N 44°25' E 008°55'0 0.0
2017-Apr-12 19:30N 44°25' E 008°55'0 0.0
2017-Apr-12 19:00N 44°25' E 008°55'0 0.0
2017-Apr-12 18:30N 44°25' E 008°55'0 0.0
2017-Apr-12 18:00N 44°25' E 008°55'0 0.0
2017-Apr-12 17:30N 44°25' E 008°55'0 0.0
2017-Apr-12 17:00N 44°25' E 008°55'0 0.0
2017-Apr-12 16:30N 44°25' E 008°55'0 0.0
2017-Apr-12 16:00N 44°25' E 008°55'0 0.0
2017-Apr-12 15:30N 44°25' E 008°55'0 0.0
2017-Apr-12 15:00N 44°25' E 008°55'0 0.0
2017-Apr-12 14:00N 44°25' E 008°55'0 0.0
2017-Apr-12 13:30N 44°25' E 008°55'0 0.0
2017-Apr-12 13:00N 44°25' E 008°55'0 0.0
2017-Apr-12 12:30N 44°25' E 008°55'0 0.0
2017-Apr-12 12:00N 44°25' E 008°55'0 0.0
2017-Apr-12 11:30N 44°25' E 008°55'0 0.0
2017-Apr-12 11:00N 44°25' E 008°55'0 0.0
2017-Apr-12 10:30N 44°25' E 008°55'0 0.0
2017-Apr-12 10:00N 44°25' E 008°55'0 0.0
2017-Apr-12 09:30N 44°25' E 008°55'0 0.0
2017-Apr-12 09:00N 44°25' E 008°55'0 0.0
2017-Apr-12 08:30N 44°25' E 008°55'0 0.0
2017-Apr-12 08:00N 44°25' E 008°55'0 0.0
2017-Apr-12 07:30N 44°25' E 008°55'0 0.0
2017-Apr-12 07:00N 44°25' E 008°55'0 0.0
2017-Apr-12 06:30N 44°25' E 008°55'0 0.0
2017-Apr-12 06:00N 44°25' E 008°55'0 0.0
2017-Apr-12 05:30N 44°25' E 008°55'0 0.0
2017-Apr-12 05:00N 44°25' E 008°55'0 0.0
2017-Apr-12 04:30N 44°25' E 008°55'0 0.0
2017-Apr-12 04:00N 44°25' E 008°55'0 0.0
2017-Apr-12 03:30N 44°25' E 008°55'0 0.0
2017-Apr-12 03:00N 44°25' E 008°55'0 0.0
2017-Apr-12 02:30N 44°25' E 008°55'0 0.0
2017-Apr-12 02:00N 44°25' E 008°55'0 0.0
2017-Apr-12 01:30N 44°25' E 008°55'0 0.0
2017-Apr-12 01:00N 44°25' E 008°55'0 0.0
2017-Apr-12 00:30N 44°25' E 008°55'0 0.0
2017-Apr-12 00:00N 44°25' E 008°55'0 0.0
2017-Apr-11 23:30N 44°25' E 008°55'0 0.0
2017-Apr-11 23:00N 44°25' E 008°55'0 0.0
2017-Apr-11 22:30N 44°25' E 008°55'0 0.0
2017-Apr-11 22:00N 44°25' E 008°55'0 0.0
2017-Apr-11 21:30N 44°25' E 008°55'0 0.0
2017-Apr-11 21:00N 44°25' E 008°55'0 0.0
2017-Apr-11 20:30N 44°25' E 008°55'0 0.0
2017-Apr-11 20:00N 44°25' E 008°55'0 0.0
2017-Apr-11 19:30N 44°25' E 008°55'0 0.0
2017-Apr-11 19:00N 44°25' E 008°55'0 0.0
2017-Apr-11 18:30N 44°25' E 008°55'0 0.0
2017-Apr-11 18:00N 44°25' E 008°55'0 0.0
2017-Apr-11 17:30N 44°25' E 008°55'0 0.0
2017-Apr-11 17:00N 44°25' E 008°55'0 0.0
2017-Apr-11 16:30N 44°25' E 008°55'0 0.0
2017-Apr-11 16:00N 44°25' E 008°55'0 0.0
2017-Apr-11 15:30N 44°25' E 008°55'0 0.0
2017-Apr-11 15:00N 44°25' E 008°55'0 0.0
2017-Apr-11 14:30N 44°25' E 008°55'0 0.0
2017-Apr-11 13:30N 44°25' E 008°55'0 0.0
2017-Apr-11 13:00N 44°25' E 008°55'0 0.0
2017-Apr-11 12:30N 44°25' E 008°55'0 0.0
2017-Apr-11 12:00N 44°25' E 008°55'0 0.0
2017-Apr-11 11:30N 44°25' E 008°55'0 0.0
2017-Apr-11 11:00N 44°25' E 008°55'0 0.0
2017-Apr-11 10:30N 44°25' E 008°55'0 0.0
2017-Apr-11 10:00N 44°25' E 008°55'0 0.0
2017-Apr-11 09:30N 44°25' E 008°55'0 0.0
2017-Apr-11 09:00N 44°25' E 008°55'0 0.0
2017-Apr-11 08:30N 44°25' E 008°55'0 0.0
2017-Apr-11 08:00N 44°25' E 008°55'0 0.0
2017-Apr-11 07:30N 44°25' E 008°55'0 0.0
2017-Apr-11 07:00N 44°25' E 008°55'  
Track history (hours):
 
Tides and Currents Weather Stations Pressure Air Temp Water Temp Dewpoint Dewpoint Depression Visibility Wind Speed Wind Dir Waves Ship Positions

Genua

Last reported at 2017-Apr-20 03:04 UTC. Time now 2017-Oct-17 04:05 UTC.
Position N 43°15' E 010°16'.
Warning: this ship's position is months out of date.

Length 35 m; draft 5.2 m.

Type: Tug. MMSI: 247204000.

Date/timePositionNaut miles runAvg speedWind from/ knotsBaromVisibWave heightAir tempDewpointWater temp
2017-Apr-20 03:04N 43°15' E 010°16'110.1
2017-Apr-20 03:00N 43°16' E 010°16'510.1
2017-Apr-20 02:31N 43°21' E 010°13'5 9.9
2017-Apr-20 02:00N 43°25' E 010°11'510.0
2017-Apr-20 01:30N 43°30' E 010°08'5 9.8
2017-Apr-20 01:00N 43°34' E 010°05'5 9.8
2017-Apr-20 00:30N 43°39' E 010°03'5 9.5
2017-Apr-20 00:00N 43°42' E 009°58'5 9.6
2017-Apr-19 23:31N 43°45' E 009°54'5 9.8
2017-Apr-19 23:00N 43°49' E 009°48'5 9.9
2017-Apr-19 22:30N 43°52' E 009°43'5 9.9
2017-Apr-19 22:00N 43°55' E 009°38'5 9.9
2017-Apr-19 21:30N 43°58' E 009°33'5 9.9
2017-Apr-19 21:01N 44°01' E 009°28'5 9.9
2017-Apr-19 20:30N 44°05' E 009°22'510.0
2017-Apr-19 20:00N 44°08' E 009°17'510.0
2017-Apr-19 19:31N 44°11' E 009°12'510.1
2017-Apr-19 19:00N 44°15' E 009°07'5 9.9
2017-Apr-19 18:30N 44°18' E 009°01'5 9.7
2017-Apr-19 18:00N 44°22' E 008°57'3 5.1
2017-Apr-19 17:20N 44°25' E 008°55'1 3.7
2017-Apr-19 17:00N 44°24' E 008°56'1 2.3
2017-Apr-19 16:29N 44°25' E 008°55'0 0.0
2017-Apr-19 15:59N 44°25' E 008°55'0 0.0
2017-Apr-19 15:29N 44°25' E 008°55'0 0.0
2017-Apr-19 14:59N 44°25' E 008°55'0 0.0
2017-Apr-19 14:29N 44°25' E 008°55'0 0.0
2017-Apr-19 13:20N 44°25' E 008°55'0 0.0
2017-Apr-19 12:59N 44°25' E 008°55'0 0.0
2017-Apr-19 12:29N 44°25' E 008°55'0 0.0
2017-Apr-19 11:59N 44°25' E 008°55'0 0.0
2017-Apr-19 11:20N 44°25' E 008°55'0 0.0
2017-Apr-19 10:50N 44°25' E 008°55'0 0.0
2017-Apr-19 10:23N 44°25' E 008°55'0 0.0
2017-Apr-19 09:53N 44°25' E 008°55'0 0.0
2017-Apr-19 09:23N 44°25' E 008°55'0 0.0
2017-Apr-19 08:53N 44°25' E 008°55'0 0.0
2017-Apr-19 08:20N 44°25' E 008°55'0 0.0
2017-Apr-19 07:53N 44°25' E 008°55'0 0.0
2017-Apr-19 07:11N 44°25' E 008°55'0 0.0
2017-Apr-19 06:56N 44°25' E 008°55'0 0.0
2017-Apr-19 06:26N 44°25' E 008°55'0 0.0
2017-Apr-19 05:56N 44°25' E 008°55'0 0.0
2017-Apr-19 05:26N 44°25' E 008°55'0 0.0
2017-Apr-19 04:56N 44°25' E 008°55'0 0.0
2017-Apr-19 04:26N 44°25' E 008°55'0 0.0
2017-Apr-19 03:26N 44°25' E 008°55'0 0.0
2017-Apr-19 02:59N 44°25' E 008°55'0 0.0
2017-Apr-19 02:29N 44°25' E 008°55'0 0.0
2017-Apr-19 01:59N 44°25' E 008°55'0 0.0
2017-Apr-19 01:29N 44°25' E 008°55'0 0.0
2017-Apr-19 00:59N 44°25' E 008°55'0 0.0
2017-Apr-18 23:47N 44°25' E 008°55'0 0.0
2017-Apr-18 23:29N 44°25' E 008°55'0 0.0
2017-Apr-18 22:59N 44°25' E 008°55'0 0.0
2017-Apr-18 22:17N 44°25' E 008°55'0 0.0
2017-Apr-18 21:59N 44°25' E 008°55'0 0.0
2017-Apr-18 21:17N 44°25' E 008°55'0 0.0
2017-Apr-18 20:50N 44°25' E 008°55'0 0.0
2017-Apr-18 20:23N 44°25' E 008°55'0 0.0
2017-Apr-18 19:50N 44°25' E 008°55'0 0.0
2017-Apr-18 19:20N 44°25' E 008°55'0 0.0
2017-Apr-18 18:23N 44°25' E 008°55'0 0.0
2017-Apr-18 17:56N 44°25' E 008°55'0 0.0
2017-Apr-18 17:26N 44°25' E 008°55'0 0.0
2017-Apr-18 16:56N 44°25' E 008°55'0 0.0
2017-Apr-18 16:26N 44°25' E 008°55'0 0.0
2017-Apr-18 15:26N 44°25' E 008°55'0 0.0
2017-Apr-18 14:56N 44°25' E 008°55'0 0.0
2017-Apr-18 13:53N 44°25' E 008°55'1 2.3
2017-Apr-18 13:30N 44°24' E 008°56'1 1.0
2017-Apr-18 12:36N 44°25' E 008°55'0 0.0
2017-Apr-18 12:24N 44°25' E 008°55'0 0.0
2017-Apr-18 11:51N 44°25' E 008°55'0 0.0
2017-Apr-18 11:06N 44°25' E 008°55'0 0.0
2017-Apr-18 10:57N 44°25' E 008°55'0 0.0
2017-Apr-18 10:27N 44°25' E 008°55'0 0.0
2017-Apr-18 09:57N 44°25' E 008°55'0 0.0
2017-Apr-18 09:27N 44°25' E 008°55'0 0.0
2017-Apr-18 08:57N 44°25' E 008°55'0 0.0
2017-Apr-18 08:24N 44°25' E 008°55'0 0.0
2017-Apr-18 08:00N 44°25' E 008°55'0 0.0
2017-Apr-18 07:30N 44°25' E 008°55'0 0.0
2017-Apr-18 06:55N 44°25' E 008°55'0 0.0
2017-Apr-18 06:30N 44°25' E 008°55'0 0.0
2017-Apr-18 06:00N 44°25' E 008°55'0 0.0
2017-Apr-18 05:30N 44°25' E 008°55'0 0.0
2017-Apr-18 05:00N 44°25' E 008°55'0 0.0
2017-Apr-18 04:30N 44°25' E 008°55'0 0.0
2017-Apr-18 04:00N 44°25' E 008°55'0 0.0
2017-Apr-18 03:30N 44°25' E 008°55'0 0.0
2017-Apr-18 03:00N 44°25' E 008°55'0 0.0
2017-Apr-18 02:30N 44°25' E 008°55'0 0.0
2017-Apr-18 02:00N 44°25' E 008°55'0 0.0
2017-Apr-18 01:30N 44°25' E 008°55'0 0.0
2017-Apr-18 01:00N 44°25' E 008°55'0 0.0
2017-Apr-18 00:30N 44°25' E 008°55'0 0.0
2017-Apr-18 00:00N 44°25' E 008°55'0 0.0
2017-Apr-17 23:30N 44°25' E 008°55'0 0.0
2017-Apr-17 23:01N 44°25' E 008°55'0 0.0
2017-Apr-17 22:31N 44°25' E 008°55'0 0.0
2017-Apr-17 22:01N 44°25' E 008°55'0 0.0
2017-Apr-17 21:31N 44°25' E 008°55'0 0.0
2017-Apr-17 21:01N 44°25' E 008°55'0 0.0
2017-Apr-17 20:30N 44°25' E 008°55'0 0.0
2017-Apr-17 20:01N 44°25' E 008°55'0 0.0
2017-Apr-17 19:31N 44°25' E 008°55'0 0.0
2017-Apr-17 19:01N 44°25' E 008°55'0 0.0
2017-Apr-17 18:30N 44°25' E 008°55'0 0.0
2017-Apr-17 18:01N 44°25' E 008°55'0 0.0
2017-Apr-17 17:31N 44°25' E 008°55'0 0.0
2017-Apr-17 17:01N 44°25' E 008°55'0 0.0
2017-Apr-17 16:30N 44°25' E 008°55'0 0.0
2017-Apr-17 16:00N 44°25' E 008°55'0 0.0
2017-Apr-17 15:30N 44°25' E 008°55'0 0.0
2017-Apr-17 15:00N 44°25' E 008°55'0 0.0
2017-Apr-17 14:00N 44°25' E 008°55'0 0.0
2017-Apr-17 13:30N 44°25' E 008°55'0 0.0
2017-Apr-17 13:00N 44°25' E 008°55'0 0.0
2017-Apr-17 12:30N 44°25' E 008°55'0 0.0
2017-Apr-17 12:00N 44°25' E 008°55'0 0.0
2017-Apr-17 11:30N 44°25' E 008°55'0 0.0
2017-Apr-17 11:00N 44°25' E 008°55'0 0.0
2017-Apr-17 10:30N 44°25' E 008°55'0 0.0
2017-Apr-17 10:00N 44°25' E 008°55'0 0.0
2017-Apr-17 09:30N 44°25' E 008°55'0 0.0
2017-Apr-17 09:01N 44°25' E 008°55'0 0.0
2017-Apr-17 08:31N 44°25' E 008°55'0 0.0
2017-Apr-17 08:01N 44°25' E 008°55'0 0.0
2017-Apr-17 07:31N 44°25' E 008°55'0 0.0
2017-Apr-17 07:01N 44°25' E 008°55'0 0.0
2017-Apr-17 06:31N 44°25' E 008°55'0 0.0
2017-Apr-17 06:00N 44°25' E 008°55'0 0.0
2017-Apr-17 05:31N 44°25' E 008°55'0 0.0
2017-Apr-17 05:01N 44°25' E 008°55'0 0.0
2017-Apr-17 04:31N 44°25' E 008°55'0 0.0
2017-Apr-17 04:00N 44°25' E 008°55'0 0.0
2017-Apr-17 03:30N 44°25' E 008°55'0 0.0
2017-Apr-17 03:01N 44°25' E 008°55'0 0.0
2017-Apr-17 02:31N 44°25' E 008°55'0 0.0
2017-Apr-17 02:00N 44°25' E 008°55'0 0.0
2017-Apr-17 01:30N 44°25' E 008°55'0 0.0
2017-Apr-17 01:00N 44°25' E 008°55'0 0.0
2017-Apr-17 00:30N 44°25' E 008°55'0 0.0
2017-Apr-17 00:00N 44°25' E 008°55'0 0.0
2017-Apr-16 23:30N 44°25' E 008°55'0 0.0
2017-Apr-16 23:00N 44°25' E 008°55'0 0.0
2017-Apr-16 22:30N 44°25' E 008°55'0 0.0
2017-Apr-16 22:00N 44°25' E 008°55'0 0.0
2017-Apr-16 21:30N 44°25' E 008°55'0 0.0
2017-Apr-16 21:00N 44°25' E 008°55'0 0.0
2017-Apr-16 20:30N 44°25' E 008°55'0 0.0
2017-Apr-16 20:00N 44°25' E 008°55'0 0.0
2017-Apr-16 19:30N 44°25' E 008°55'0 0.0
2017-Apr-16 19:01N 44°25' E 008°55'0 0.0
2017-Apr-16 18:31N 44°25' E 008°55'0 0.0
2017-Apr-16 18:01N 44°25' E 008°55'0 0.0
2017-Apr-16 17:31N 44°25' E 008°55'0 0.0
2017-Apr-16 17:01N 44°25' E 008°55'0 0.0
2017-Apr-16 16:31N 44°25' E 008°55'0 0.0
2017-Apr-16 16:00N 44°25' E 008°55'0 0.0
2017-Apr-16 15:30N 44°25' E 008°55'0 0.0
2017-Apr-16 15:01N 44°25' E 008°55'0 0.0
2017-Apr-16 14:01N 44°25' E 008°55'0 0.0
2017-Apr-16 13:31N 44°25' E 008°55'0 0.0
2017-Apr-16 13:01N 44°25' E 008°55'0 0.0
2017-Apr-16 12:31N 44°25' E 008°55'0 0.0
2017-Apr-16 12:00N 44°25' E 008°55'0 0.0
2017-Apr-16 11:30N 44°25' E 008°55'0 0.0
2017-Apr-16 11:00N 44°25' E 008°55'0 0.0
2017-Apr-16 10:30N 44°25' E 008°55'0 0.0
2017-Apr-16 10:00N 44°25' E 008°55'0 0.0
2017-Apr-16 09:30N 44°25' E 008°55'0 0.0
2017-Apr-16 09:00N 44°25' E 008°55'0 0.0
2017-Apr-16 08:30N 44°25' E 008°55'0 0.0
2017-Apr-16 08:00N 44°25' E 008°55'0 0.0
2017-Apr-16 07:30N 44°25' E 008°55'0 0.0
2017-Apr-16 07:00N 44°25' E 008°55'0 0.0
2017-Apr-16 06:30N 44°25' E 008°55'0 0.0
2017-Apr-16 06:00N 44°25' E 008°55'0 0.0
2017-Apr-16 05:30N 44°25' E 008°55'0 0.0
2017-Apr-16 05:00N 44°25' E 008°55'0 0.0
2017-Apr-16 04:31N 44°25' E 008°55'0 0.0
2017-Apr-16 04:00N 44°25' E 008°55'0 0.0
2017-Apr-16 03:31N 44°25' E 008°55'0 0.0
2017-Apr-16 03:00N 44°25' E 008°55'0 0.0
2017-Apr-16 02:31N 44°25' E 008°55'0 0.0
2017-Apr-16 02:01N 44°25' E 008°55'0 0.0
2017-Apr-16 01:30N 44°25' E 008°55'0 0.0
2017-Apr-16 01:01N 44°25' E 008°55'0 0.0
2017-Apr-16 00:31N 44°25' E 008°55'0 0.0
2017-Apr-16 00:01N 44°25' E 008°55'0 0.0
2017-Apr-15 23:31N 44°25' E 008°55'0 0.0
2017-Apr-15 23:01N 44°25' E 008°55'0 0.0
2017-Apr-15 22:31N 44°25' E 008°55'0 0.0
2017-Apr-15 22:00N 44°25' E 008°55'0 0.0
2017-Apr-15 21:30N 44°25' E 008°55'0 0.0
2017-Apr-15 21:00N 44°25' E 008°55'0 0.0
2017-Apr-15 20:30N 44°25' E 008°55'0 0.0
2017-Apr-15 20:00N 44°25' E 008°55'0 0.0
2017-Apr-15 19:30N 44°25' E 008°55'0 0.0
2017-Apr-15 19:00N 44°25' E 008°55'0 0.0
2017-Apr-15 18:30N 44°25' E 008°55'0 0.0
2017-Apr-15 18:00N 44°25' E 008°55'0 0.0
2017-Apr-15 17:30N 44°25' E 008°55'0 0.0
2017-Apr-15 17:00N 44°25' E 008°55'0 0.0
2017-Apr-15 16:30N 44°25' E 008°55'0 0.0
2017-Apr-15 16:00N 44°25' E 008°55'0 0.0
2017-Apr-15 15:30N 44°25' E 008°55'0 0.0
2017-Apr-15 15:01N 44°25' E 008°55'0 0.0
2017-Apr-15 14:30N 44°25' E 008°55'0 0.0
2017-Apr-15 14:00N 44°25' E 008°55'0 0.0
2017-Apr-15 13:31N 44°25' E 008°55'0 0.0
2017-Apr-15 13:00N 44°25' E 008°55'0 0.0
2017-Apr-15 12:31N 44°25' E 008°55'0 0.0
2017-Apr-15 12:01N 44°25' E 008°55'0 0.0
2017-Apr-15 11:30N 44°25' E 008°55'0 0.0
2017-Apr-15 11:00N 44°25' E 008°55'0 0.0
2017-Apr-15 10:30N 44°25' E 008°55'0 0.0
2017-Apr-15 10:00N 44°25' E 008°55'0 0.0
2017-Apr-15 09:31N 44°25' E 008°55'1 2.3
2017-Apr-15 09:01N 44°24' E 008°56'0 0.2
2017-Apr-15 08:30N 44°24' E 008°56'1 2.6
2017-Apr-15 08:01N 44°25' E 008°55'0 0.0
2017-Apr-15 07:30N 44°25' E 008°55'0 0.0
2017-Apr-15 07:00N 44°25' E 008°55'0 0.0
2017-Apr-15 06:30N 44°25' E 008°55'0 0.0
2017-Apr-15 06:00N 44°25' E 008°55'0 0.0
2017-Apr-15 05:30N 44°25' E 008°55'0 0.0
2017-Apr-15 05:00N 44°25' E 008°55'0 0.0
2017-Apr-15 04:30N 44°25' E 008°55'0 0.0
2017-Apr-15 04:00N 44°25' E 008°55'0 0.0
2017-Apr-15 03:30N 44°25' E 008°55'0 0.0
2017-Apr-15 03:00N 44°25' E 008°55'0 0.0
2017-Apr-15 02:30N 44°25' E 008°55'0 0.0
2017-Apr-15 02:00N 44°25' E 008°55'0 0.0
2017-Apr-15 01:30N 44°25' E 008°55'0 0.0
2017-Apr-15 01:00N 44°25' E 008°55'0 0.0
2017-Apr-15 00:31N 44°25' E 008°55'0 0.0
2017-Apr-15 00:01N 44°25' E 008°55'0 0.0
2017-Apr-14 23:31N 44°25' E 008°55'0 0.0
2017-Apr-14 23:01N 44°25' E 008°55'0 0.0
2017-Apr-14 22:31N 44°25' E 008°55'0 0.0
2017-Apr-14 22:01N 44°25' E 008°55'0 0.0
2017-Apr-14 21:31N 44°25' E 008°55'0 0.0
2017-Apr-14 21:01N 44°25' E 008°55'0 0.0
2017-Apr-14 20:31N 44°25' E 008°55'0 0.0
2017-Apr-14 20:01N 44°25' E 008°55'0 0.0
2017-Apr-14 19:31N 44°25' E 008°55'0 0.0
2017-Apr-14 19:01N 44°25' E 008°55'0 0.0
2017-Apr-14 18:31N 44°25' E 008°55'0 0.0
2017-Apr-14 18:01N 44°25' E 008°55'0 0.0
2017-Apr-14 17:30N 44°25' E 008°55'0 0.0
2017-Apr-14 17:00N 44°25' E 008°55'0 0.0
2017-Apr-14 16:30N 44°25' E 008°55'0 0.0
2017-Apr-14 16:00N 44°25' E 008°55'0 0.0
2017-Apr-14 15:30N 44°25' E 008°55'0 0.0
2017-Apr-14 15:00N 44°25' E 008°55'0 0.0
2017-Apr-14 14:30N 44°25' E 008°55'0 0.0
2017-Apr-14 13:30N 44°25' E 008°55'2 4.1
2017-Apr-14 13:00N 44°23' E 008°57'0 0.6
2017-Apr-14 12:30N 44°23' E 008°57'2 3.7
2017-Apr-14 12:01N 44°25' E 008°55'0 0.0
2017-Apr-14 11:27N 44°25' E 008°55'0 0.0
2017-Apr-14 10:57N 44°25' E 008°55'0 0.0
2017-Apr-14 10:12N 44°25' E 008°55'0 0.0
2017-Apr-14 09:57N 44°25' E 008°55'0 0.0
2017-Apr-14 09:27N 44°25' E 008°55'0 0.0
2017-Apr-14 08:57N 44°25' E 008°55'0 0.0
2017-Apr-14 08:27N 44°25' E 008°55'0 0.0
2017-Apr-14 08:00N 44°25' E 008°55'0 0.0
2017-Apr-14 07:30N 44°25' E 008°55'0 0.0
2017-Apr-14 06:57N 44°25' E 008°55'0 0.0
2017-Apr-14 06:30N 44°25' E 008°55'0 0.0
2017-Apr-14 06:00N 44°25' E 008°55'0 0.0
2017-Apr-14 05:30N 44°25' E 008°55'0 0.0
2017-Apr-14 05:00N 44°25' E 008°55'0 0.0
2017-Apr-14 04:03N 44°25' E 008°55'0 0.0
2017-Apr-14 04:00N 44°25' E 008°55'0 0.0
2017-Apr-14 03:30N 44°25' E 008°55'0 0.0
2017-Apr-14 03:00N 44°25' E 008°55'0 0.0
2017-Apr-14 02:30N 44°25' E 008°55'0 0.0
2017-Apr-14 02:00N 44°25' E 008°55'0 0.0
2017-Apr-14 01:21N 44°25' E 008°55'0 0.0
2017-Apr-14 00:51N 44°25' E 008°55'0 0.0
2017-Apr-14 00:24N 44°25' E 008°55'0 0.0
2017-Apr-13 23:54N 44°25' E 008°55'0 0.0
2017-Apr-13 23:24N 44°25' E 008°55'0 0.0
2017-Apr-13 22:51N 44°25' E 008°55'0 0.0
2017-Apr-13 22:24N 44°25' E 008°55'0 0.0
2017-Apr-13 21:54N 44°25' E 008°55'0 0.0
2017-Apr-13 21:24N 44°25' E 008°55'0 0.0
2017-Apr-13 20:57N 44°25' E 008°55'0 0.0
2017-Apr-13 20:27N 44°25' E 008°55'0 0.0
2017-Apr-13 19:54N 44°25' E 008°55'0 0.0
2017-Apr-13 19:27N 44°25' E 008°55'0 0.0
2017-Apr-13 18:57N 44°25' E 008°55'0 0.0
2017-Apr-13 18:30N 44°25' E 008°55'0 0.0
2017-Apr-13 18:00N 44°25' E 008°55'0 0.0
2017-Apr-13 17:27N 44°25' E 008°55'0 0.0
2017-Apr-13 17:00N 44°25' E 008°55'0 0.0
2017-Apr-13 16:30N 44°25' E 008°55'0 0.0
2017-Apr-13 16:00N 44°25' E 008°55'0 0.0
2017-Apr-13 15:30N 44°25' E 008°55'0 0.0
2017-Apr-13 15:00N 44°25' E 008°55'0 0.0
2017-Apr-13 14:00N 44°25' E 008°55'0 0.0
2017-Apr-13 13:30N 44°25' E 008°55'0 0.0
2017-Apr-13 13:00N 44°25' E 008°55'0 0.0
2017-Apr-13 12:30N 44°25' E 008°55'0 0.0
2017-Apr-13 12:00N 44°25' E 008°55'0 0.0
2017-Apr-13 11:30N 44°25' E 008°55'0 0.0
2017-Apr-13 11:00N 44°25' E 008°55'0 0.0
2017-Apr-13 10:30N 44°25' E 008°55'0 0.0
2017-Apr-13 10:00N 44°25' E 008°55'0 0.0
2017-Apr-13 09:30N 44°25' E 008°55'0 0.0
2017-Apr-13 09:00N 44°25' E 008°55'0 0.0
2017-Apr-13 08:30N 44°25' E 008°55'0 0.0
2017-Apr-13 08:00N 44°25' E 008°55'0 0.0
2017-Apr-13 07:30N 44°25' E 008°55'0 0.0
2017-Apr-13 07:00N 44°25' E 008°55'0 0.0
2017-Apr-13 06:30N 44°25' E 008°55'0 0.0
2017-Apr-13 06:00N 44°25' E 008°55'0 0.0
2017-Apr-13 05:30N 44°25' E 008°55'0 0.0
2017-Apr-13 05:00N 44°25' E 008°55'0 0.0
2017-Apr-13 04:30N 44°25' E 008°55'0 0.0
2017-Apr-13 04:00N 44°25' E 008°55'0 0.0
2017-Apr-13 03:30N 44°25' E 008°55'0 0.0
2017-Apr-13 03:00N 44°25' E 008°55'0 0.0
2017-Apr-13 02:30N 44°25' E 008°55'0 0.0
2017-Apr-13 02:00N 44°25' E 008°55'0 0.0
2017-Apr-13 01:30N 44°25' E 008°55'0 0.0
2017-Apr-13 01:00N 44°25' E 008°55'0 0.0
2017-Apr-13 00:30N 44°25' E 008°55'0 0.0
2017-Apr-13 00:00N 44°25' E 008°55'0 0.0
2017-Apr-12 23:30N 44°25' E 008°55'0 0.0
2017-Apr-12 23:00N 44°25' E 008°55'0 0.0
2017-Apr-12 22:30N 44°25' E 008°55'0 0.0
2017-Apr-12 22:00N 44°25' E 008°55'0 0.0
2017-Apr-12 21:30N 44°25' E 008°55'0 0.0
2017-Apr-12 21:00N 44°25' E 008°55'0 0.0
2017-Apr-12 20:30N 44°25' E 008°55'0 0.0
2017-Apr-12 20:00N 44°25' E 008°55'0 0.0
2017-Apr-12 19:30N 44°25' E 008°55'0 0.0
2017-Apr-12 19:00N 44°25' E 008°55'0 0.0
2017-Apr-12 18:30N 44°25' E 008°55'0 0.0
2017-Apr-12 18:00N 44°25' E 008°55'0 0.0
2017-Apr-12 17:30N 44°25' E 008°55'0 0.0
2017-Apr-12 17:00N 44°25' E 008°55'0 0.0
2017-Apr-12 16:30N 44°25' E 008°55'0 0.0
2017-Apr-12 16:00N 44°25' E 008°55'0 0.0
2017-Apr-12 15:30N 44°25' E 008°55'0 0.0
2017-Apr-12 15:00N 44°25' E 008°55'0 0.0
2017-Apr-12 14:00N 44°25' E 008°55'0 0.0
2017-Apr-12 13:30N 44°25' E 008°55'0 0.0
2017-Apr-12 13:00N 44°25' E 008°55'0 0.0
2017-Apr-12 12:30N 44°25' E 008°55'0 0.0
2017-Apr-12 12:00N 44°25' E 008°55'0 0.0
2017-Apr-12 11:30N 44°25' E 008°55'0 0.0
2017-Apr-12 11:00N 44°25' E 008°55'0 0.0
2017-Apr-12 10:30N 44°25' E 008°55'0 0.0
2017-Apr-12 10:00N 44°25' E 008°55'0 0.0
2017-Apr-12 09:30N 44°25' E 008°55'0 0.0
2017-Apr-12 09:00N 44°25' E 008°55'0 0.0
2017-Apr-12 08:30N 44°25' E 008°55'0 0.0
2017-Apr-12 08:00N 44°25' E 008°55'0 0.0
2017-Apr-12 07:30N 44°25' E 008°55'0 0.0
2017-Apr-12 07:00N 44°25' E 008°55'0 0.0
2017-Apr-12 06:30N 44°25' E 008°55'0 0.0
2017-Apr-12 06:00N 44°25' E 008°55'0 0.0
2017-Apr-12 05:30N 44°25' E 008°55'0 0.0
2017-Apr-12 05:00N 44°25' E 008°55'0 0.0
2017-Apr-12 04:30N 44°25' E 008°55'0 0.0
2017-Apr-12 04:00N 44°25' E 008°55'0 0.0
2017-Apr-12 03:30N 44°25' E 008°55'0 0.0
2017-Apr-12 03:00N 44°25' E 008°55'0 0.0
2017-Apr-12 02:30N 44°25' E 008°55'0 0.0
2017-Apr-12 02:00N 44°25' E 008°55'0 0.0
2017-Apr-12 01:30N 44°25' E 008°55'0 0.0
2017-Apr-12 01:00N 44°25' E 008°55'0 0.0
2017-Apr-12 00:30N 44°25' E 008°55'0 0.0
2017-Apr-12 00:00N 44°25' E 008°55'0 0.0
2017-Apr-11 23:30N 44°25' E 008°55'0 0.0
2017-Apr-11 23:00N 44°25' E 008°55'0 0.0
2017-Apr-11 22:30N 44°25' E 008°55'0 0.0
2017-Apr-11 22:00N 44°25' E 008°55'0 0.0
2017-Apr-11 21:30N 44°25' E 008°55'0 0.0
2017-Apr-11 21:00N 44°25' E 008°55'0 0.0
2017-Apr-11 20:30N 44°25' E 008°55'0 0.0
2017-Apr-11 20:00N 44°25' E 008°55'0 0.0
2017-Apr-11 19:30N 44°25' E 008°55'0 0.0
2017-Apr-11 19:00N 44°25' E 008°55'0 0.0
2017-Apr-11 18:30N 44°25' E 008°55'0 0.0
2017-Apr-11 18:00N 44°25' E 008°55'0 0.0
2017-Apr-11 17:30N 44°25' E 008°55'0 0.0
2017-Apr-11 17:00N 44°25' E 008°55'0 0.0
2017-Apr-11 16:30N 44°25' E 008°55'0 0.0
2017-Apr-11 16:00N 44°25' E 008°55'0 0.0
2017-Apr-11 15:30N 44°25' E 008°55'0 0.0
2017-Apr-11 15:00N 44°25' E 008°55'0 0.0
2017-Apr-11 14:30N 44°25' E 008°55'0 0.0
2017-Apr-11 13:30N 44°25' E 008°55'0 0.0
2017-Apr-11 13:00N 44°25' E 008°55'0 0.0
2017-Apr-11 12:30N 44°25' E 008°55'0 0.0
2017-Apr-11 12:00N 44°25' E 008°55'0 0.0
2017-Apr-11 11:30N 44°25' E 008°55'0 0.0
2017-Apr-11 11:00N 44°25' E 008°55'0 0.0
2017-Apr-11 10:30N 44°25' E 008°55'0 0.0
2017-Apr-11 10:00N 44°25' E 008°55'0 0.0
2017-Apr-11 09:30N 44°25' E 008°55'0 0.0
2017-Apr-11 09:00N 44°25' E 008°55'0 0.0
2017-Apr-11 08:30N 44°25' E 008°55'0 0.0
2017-Apr-11 08:00N 44°25' E 008°55'0 0.0
2017-Apr-11 07:30N 44°25' E 008°55'0 0.0
2017-Apr-11 07:00N 44°25' E 008°55'  

Dump ship's entire track history